sensor_id;sensor_type;location;lat;lon;timestamp;pressure;altitude;pressure_sealevel;temperature;humidity
52105;BME280;38103;42.776;23.112;2023-08-06T00:00:12;92926.13;;;17.41;100.00
52105;BME280;38103;42.776;23.112;2023-08-06T00:02:37;92910.94;;;17.50;100.00
52105;BME280;38103;42.776;23.112;2023-08-06T00:05:03;92892.34;;;17.45;100.00
52105;BME280;38103;42.776;23.112;2023-08-06T00:07:28;92913.31;;;17.52;100.00
52105;BME280;38103;42.776;23.112;2023-08-06T00:09:53;92902.78;;;17.56;100.00
52105;BME280;38103;42.776;23.112;2023-08-06T00:12:19;92909.00;;;17.65;100.00
52105;BME280;38103;42.776;23.112;2023-08-06T00:14:44;92935.22;;;17.63;100.00
52105;BME280;38103;42.776;23.112;2023-08-06T00:17:10;92923.31;;;17.69;100.00
52105;BME280;38103;42.776;23.112;2023-08-06T00:19:35;92902.91;;;17.73;100.00
52105;BME280;38103;42.776;23.112;2023-08-06T00:22:00;92901.94;;;17.69;100.00
52105;BME280;38103;42.776;23.112;2023-08-06T00:24:27;92896.28;;;17.71;100.00
52105;BME280;38103;42.776;23.112;2023-08-06T00:26:52;92887.38;;;17.75;100.00
52105;BME280;38103;42.776;23.112;2023-08-06T00:29:18;92885.66;;;17.80;100.00
52105;BME280;38103;42.776;23.112;2023-08-06T00:31:43;92893.09;;;17.60;100.00
52105;BME280;38103;42.776;23.112;2023-08-06T00:34:08;92891.97;;;17.61;100.00
52105;BME280;38103;42.776;23.112;2023-08-06T00:36:34;92883.81;;;17.57;100.00
52105;BME280;38103;42.776;23.112;2023-08-06T00:38:59;92820.25;;;17.22;100.00
52105;BME280;38103;42.776;23.112;2023-08-06T00:41:24;92888.44;;;17.74;100.00
52105;BME280;38103;42.776;23.112;2023-08-06T00:43:50;92885.28;;;17.72;100.00
52105;BME280;38103;42.776;23.112;2023-08-06T00:46:16;92888.94;;;17.53;100.00
52105;BME280;38103;42.776;23.112;2023-08-06T00:48:41;92898.56;;;17.55;100.00
52105;BME280;38103;42.776;23.112;2023-08-06T00:51:09;92904.88;;;17.36;100.00
52105;BME280;38103;42.776;23.112;2023-08-06T00:53:36;92897.56;;;17.27;100.00
52105;BME280;38103;42.776;23.112;2023-08-06T00:56:02;92878.63;;;17.38;100.00
52105;BME280;38103;42.776;23.112;2023-08-06T00:58:27;92836.47;;;16.89;100.00
52105;BME280;38103;42.776;23.112;2023-08-06T01:00:53;92868.53;;;17.12;100.00
52105;BME280;38103;42.776;23.112;2023-08-06T01:03:18;92876.44;;;17.17;100.00
52105;BME280;38103;42.776;23.112;2023-08-06T01:05:43;92880.69;;;17.18;100.00
52105;BME280;38103;42.776;23.112;2023-08-06T01:13:41;92840.16;;;17.39;100.00
52105;BME280;38103;42.776;23.112;2023-08-06T01:16:09;92787.81;;;17.15;100.00
52105;BME280;38103;42.776;23.112;2023-08-06T01:18:35;92847.94;;;17.58;100.00
52105;BME280;38103;42.776;23.112;2023-08-06T01:21:02;92840.28;;;17.65;100.00
52105;BME280;38103;42.776;23.112;2023-08-06T01:23:28;92846.53;;;17.61;100.00
52105;BME280;38103;42.776;23.112;2023-08-06T01:28:24;92858.59;;;17.49;100.00
52105;BME280;38103;42.776;23.112;2023-08-06T01:30:52;92853.13;;;17.55;100.00
52105;BME280;38103;42.776;23.112;2023-08-06T01:33:21;92849.94;;;17.52;100.00
52105;BME280;38103;42.776;23.112;2023-08-06T01:35:49;92849.53;;;17.59;100.00
52105;BME280;38103;42.776;23.112;2023-08-06T01:38:15;92861.38;;;17.67;100.00
52105;BME280;38103;42.776;23.112;2023-08-06T01:40:40;92856.97;;;17.71;100.00
52105;BME280;38103;42.776;23.112;2023-08-06T01:43:06;92854.78;;;17.73;100.00
52105;BME280;38103;42.776;23.112;2023-08-06T01:45:31;92846.75;;;17.73;100.00
52105;BME280;38103;42.776;23.112;2023-08-06T01:47:56;92835.47;;;17.76;100.00
52105;BME280;38103;42.776;23.112;2023-08-06T01:50:22;92829.72;;;17.60;100.00
52105;BME280;38103;42.776;23.112;2023-08-06T01:52:47;92828.91;;;17.51;100.00
52105;BME280;38103;42.776;23.112;2023-08-06T01:55:13;92822.19;;;17.30;100.00
52105;BME280;38103;42.776;23.112;2023-08-06T01:57:38;92819.72;;;17.43;100.00
52105;BME280;38103;42.776;23.112;2023-08-06T02:00:04;92801.38;;;17.50;100.00
52105;BME280;38103;42.776;23.112;2023-08-06T02:02:29;92820.31;;;17.63;100.00
52105;BME280;38103;42.776;23.112;2023-08-06T02:04:55;92825.50;;;17.68;100.00
52105;BME280;38103;42.776;23.112;2023-08-06T02:07:20;92746.06;;;17.19;100.00
52105;BME280;38103;42.776;23.112;2023-08-06T02:09:46;92804.63;;;17.70;100.00
52105;BME280;38103;42.776;23.112;2023-08-06T02:12:11;92809.84;;;17.75;100.00
52105;BME280;38103;42.776;23.112;2023-08-06T02:14:36;92829.03;;;17.78;100.00
52105;BME280;38103;42.776;23.112;2023-08-06T02:17:02;92815.53;;;17.83;100.00
52105;BME280;38103;42.776;23.112;2023-08-06T02:19:28;92798.84;;;17.86;100.00
52105;BME280;38103;42.776;23.112;2023-08-06T02:21:53;92771.44;;;17.71;100.00
52105;BME280;38103;42.776;23.112;2023-08-06T02:24:19;92777.72;;;17.35;100.00
52105;BME280;38103;42.776;23.112;2023-08-06T02:26:44;92813.56;;;17.11;100.00
52105;BME280;38103;42.776;23.112;2023-08-06T02:29:09;92836.88;;;17.19;100.00
52105;BME280;38103;42.776;23.112;2023-08-06T02:31:35;92844.59;;;17.06;100.00
52105;BME280;38103;42.776;23.112;2023-08-06T02:34:00;92850.47;;;17.08;100.00
52105;BME280;38103;42.776;23.112;2023-08-06T02:36:25;92858.44;;;17.23;100.00
52105;BME280;38103;42.776;23.112;2023-08-06T02:38:54;92843.91;;;17.38;100.00
52105;BME280;38103;42.776;23.112;2023-08-06T02:41:20;92824.97;;;17.25;100.00
52105;BME280;38103;42.776;23.112;2023-08-06T02:43:45;92825.53;;;17.36;100.00
52105;BME280;38103;42.776;23.112;2023-08-06T02:46:10;92835.88;;;17.38;100.00
52105;BME280;38103;42.776;23.112;2023-08-06T02:48:36;92841.22;;;17.38;100.00
52105;BME280;38103;42.776;23.112;2023-08-06T02:51:01;92838.63;;;17.47;100.00
52105;BME280;38103;42.776;23.112;2023-08-06T02:53:26;92829.56;;;17.57;100.00
52105;BME280;38103;42.776;23.112;2023-08-06T02:55:52;92770.69;;;17.39;100.00
52105;BME280;38103;42.776;23.112;2023-08-06T02:58:17;92832.31;;;17.74;100.00
52105;BME280;38103;42.776;23.112;2023-08-06T03:00:58;92844.59;;;17.75;100.00
52105;BME280;38103;42.776;23.112;2023-08-06T03:03:23;92834.56;;;17.49;100.00
52105;BME280;38103;42.776;23.112;2023-08-06T03:05:53;92831.75;;;17.55;100.00
52105;BME280;38103;42.776;23.112;2023-08-06T03:08:18;92829.44;;;17.62;100.00
52105;BME280;38103;42.776;23.112;2023-08-06T03:10:47;92813.59;;;17.74;100.00
52105;BME280;38103;42.776;23.112;2023-08-06T03:13:12;92795.38;;;17.76;100.00
52105;BME280;38103;42.776;23.112;2023-08-06T03:15:38;92795.38;;;17.76;100.00
52105;BME280;38103;42.776;23.112;2023-08-06T03:18:03;92795.56;;;17.80;100.00
52105;BME280;38103;42.776;23.112;2023-08-06T03:20:28;92794.75;;;17.80;100.00
52105;BME280;38103;42.776;23.112;2023-08-06T03:22:54;92787.03;;;17.78;100.00
52105;BME280;38103;42.776;23.112;2023-08-06T03:25:19;92788.81;;;17.83;100.00
52105;BME280;38103;42.776;23.112;2023-08-06T03:27:44;92760.88;;;17.57;100.00
52105;BME280;38103;42.776;23.112;2023-08-06T03:30:10;92809.53;;;17.86;100.00
52105;BME280;38103;42.776;23.112;2023-08-06T03:32:35;92807.66;;;17.78;100.00
52105;BME280;38103;42.776;23.112;2023-08-06T03:35:01;92794.41;;;17.72;100.00
52105;BME280;38103;42.776;23.112;2023-08-06T03:37:26;92790.16;;;17.71;100.00
52105;BME280;38103;42.776;23.112;2023-08-06T03:39:51;92795.97;;;17.73;100.00
52105;BME280;38103;42.776;23.112;2023-08-06T03:42:17;92801.97;;;17.70;100.00
52105;BME280;38103;42.776;23.112;2023-08-06T03:44:42;92807.78;;;17.72;100.00
52105;BME280;38103;42.776;23.112;2023-08-06T03:47:07;92811.41;;;17.76;100.00
52105;BME280;38103;42.776;23.112;2023-08-06T03:49:33;92803.06;;;17.78;100.00
52105;BME280;38103;42.776;23.112;2023-08-06T03:51:58;92819.28;;;17.82;100.00
52105;BME280;38103;42.776;23.112;2023-08-06T03:54:24;92814.13;;;17.85;100.00
52105;BME280;38103;42.776;23.112;2023-08-06T03:56:49;92813.34;;;17.85;100.00
52105;BME280;38103;42.776;23.112;2023-08-06T03:59:14;92814.41;;;17.84;100.00
52105;BME280;38103;42.776;23.112;2023-08-06T04:01:40;92824.19;;;17.89;100.00
52105;BME280;38103;42.776;23.112;2023-08-06T04:04:05;92836.66;;;17.93;100.00
52105;BME280;38103;42.776;23.112;2023-08-06T04:06:30;92840.59;;;17.96;100.00
52105;BME280;38103;42.776;23.112;2023-08-06T04:08:56;92832.84;;;17.94;100.00
52105;BME280;38103;42.776;23.112;2023-08-06T04:11:21;92838.81;;;17.91;100.00
52105;BME280;38103;42.776;23.112;2023-08-06T04:13:47;92846.03;;;17.82;100.00
52105;BME280;38103;42.776;23.112;2023-08-06T04:16:12;92858.63;;;17.58;100.00
52105;BME280;38103;42.776;23.112;2023-08-06T04:18:39;92860.03;;;17.56;100.00
52105;BME280;38103;42.776;23.112;2023-08-06T04:21:05;92861.75;;;17.51;100.00
52105;BME280;38103;42.776;23.112;2023-08-06T04:23:30;92855.84;;;17.63;100.00
52105;BME280;38103;42.776;23.112;2023-08-06T04:25:57;92848.81;;;17.76;100.00
52105;BME280;38103;42.776;23.112;2023-08-06T04:28:22;92844.94;;;17.83;100.00
52105;BME280;38103;42.776;23.112;2023-08-06T04:30:47;92844.00;;;17.87;100.00
52105;BME280;38103;42.776;23.112;2023-08-06T04:33:13;92837.59;;;17.97;100.00
52105;BME280;38103;42.776;23.112;2023-08-06T04:35:38;92838.25;;;18.03;100.00
52105;BME280;38103;42.776;23.112;2023-08-06T04:38:04;92832.75;;;18.08;100.00
52105;BME280;38103;42.776;23.112;2023-08-06T04:40:29;92827.28;;;18.14;100.00
52105;BME280;38103;42.776;23.112;2023-08-06T04:42:54;92808.84;;;18.03;100.00
52105;BME280;38103;42.776;23.112;2023-08-06T04:45:20;92820.19;;;18.18;100.00
52105;BME280;38103;42.776;23.112;2023-08-06T04:47:45;92824.75;;;18.17;100.00
52105;BME280;38103;42.776;23.112;2023-08-06T04:50:10;92828.91;;;18.24;100.00
52105;BME280;38103;42.776;23.112;2023-08-06T04:52:37;92825.75;;;18.22;100.00
52105;BME280;38103;42.776;23.112;2023-08-06T04:55:06;92823.56;;;18.24;100.00
52105;BME280;38103;42.776;23.112;2023-08-06T04:57:32;92822.53;;;18.19;100.00
52105;BME280;38103;42.776;23.112;2023-08-06T04:59:57;92817.41;;;18.23;100.00
52105;BME280;38103;42.776;23.112;2023-08-06T05:02:23;92813.94;;;18.23;100.00
52105;BME280;38103;42.776;23.112;2023-08-06T05:04:48;92808.44;;;18.28;100.00
52105;BME280;38103;42.776;23.112;2023-08-06T05:07:13;92800.56;;;18.23;100.00
52105;BME280;38103;42.776;23.112;2023-08-06T05:09:39;92808.13;;;18.20;100.00
52105;BME280;38103;42.776;23.112;2023-08-06T05:12:04;92802.94;;;18.24;100.00
52105;BME280;38103;42.776;23.112;2023-08-06T05:14:30;92798.34;;;18.25;100.00
52105;BME280;38103;42.776;23.112;2023-08-06T05:16:55;92767.78;;;18.08;100.00
52105;BME280;38103;42.776;23.112;2023-08-06T05:19:20;92803.75;;;18.42;100.00
52105;BME280;38103;42.776;23.112;2023-08-06T05:21:46;92808.66;;;18.49;100.00
52105;BME280;38103;42.776;23.112;2023-08-06T05:24:11;92799.66;;;18.54;100.00
52105;BME280;38103;42.776;23.112;2023-08-06T05:26:37;92801.88;;;18.79;100.00
52105;BME280;38103;42.776;23.112;2023-08-06T05:29:03;92752.75;;;18.83;100.00
52105;BME280;38103;42.776;23.112;2023-08-06T05:31:28;92785.75;;;19.41;100.00
52105;BME280;38103;42.776;23.112;2023-08-06T05:33:54;92776.03;;;19.75;100.00
52105;BME280;38103;42.776;23.112;2023-08-06T05:36:19;92791.59;;;20.30;100.00
52105;BME280;38103;42.776;23.112;2023-08-06T05:38:45;92789.75;;;20.65;100.00
52105;BME280;38103;42.776;23.112;2023-08-06T05:41:10;92782.47;;;21.08;100.00
52105;BME280;38103;42.776;23.112;2023-08-06T05:43:35;92772.16;;;21.44;100.00
52105;BME280;38103;42.776;23.112;2023-08-06T05:46:01;92785.09;;;21.51;100.00
52105;BME280;38103;42.776;23.112;2023-08-06T05:48:26;92794.19;;;21.59;100.00
52105;BME280;38103;42.776;23.112;2023-08-06T05:50:53;92801.66;;;21.53;100.00
52105;BME280;38103;42.776;23.112;2023-08-06T05:53:18;92805.31;;;21.36;100.00
52105;BME280;38103;42.776;23.112;2023-08-06T05:55:44;92761.13;;;20.91;100.00
52105;BME280;38103;42.776;23.112;2023-08-06T05:58:10;92801.16;;;20.83;100.00
52105;BME280;38103;42.776;23.112;2023-08-06T06:00:35;92809.59;;;20.73;100.00
52105;BME280;38103;42.776;23.112;2023-08-06T06:03:01;92812.41;;;20.55;100.00
52105;BME280;38103;42.776;23.112;2023-08-06T06:05:27;92820.13;;;20.57;100.00
52105;BME280;38103;42.776;23.112;2023-08-06T06:07:53;92823.81;;;20.52;100.00
52105;BME280;38103;42.776;23.112;2023-08-06T06:10:18;92823.81;;;20.52;100.00
52105;BME280;38103;42.776;23.112;2023-08-06T06:12:44;92834.03;;;20.59;100.00
52105;BME280;38103;42.776;23.112;2023-08-06T06:15:09;92841.91;;;20.85;100.00
52105;BME280;38103;42.776;23.112;2023-08-06T06:17:35;92845.13;;;21.00;100.00
52105;BME280;38103;42.776;23.112;2023-08-06T06:20:00;92851.09;;;21.06;100.00
52105;BME280;38103;42.776;23.112;2023-08-06T06:22:26;92854.91;;;21.05;100.00
52105;BME280;38103;42.776;23.112;2023-08-06T06:24:51;92858.44;;;21.18;100.00
52105;BME280;38103;42.776;23.112;2023-08-06T06:27:16;92852.28;;;21.39;100.00
52105;BME280;38103;42.776;23.112;2023-08-06T06:29:42;92850.47;;;21.43;100.00
52105;BME280;38103;42.776;23.112;2023-08-06T06:32:07;92861.06;;;21.61;100.00
52105;BME280;38103;42.776;23.112;2023-08-06T06:34:33;92858.31;;;21.82;100.00
52105;BME280;38103;42.776;23.112;2023-08-06T06:36:58;92869.72;;;22.01;100.00
52105;BME280;38103;42.776;23.112;2023-08-06T06:39:23;92868.81;;;22.21;100.00
52105;BME280;38103;42.776;23.112;2023-08-06T06:41:49;92860.53;;;22.39;100.00
52105;BME280;38103;42.776;23.112;2023-08-06T06:44:14;92856.16;;;22.60;100.00
52105;BME280;38103;42.776;23.112;2023-08-06T06:46:40;92860.31;;;22.70;100.00
52105;BME280;38103;42.776;23.112;2023-08-06T06:49:06;92804.22;;;22.47;100.00
52105;BME280;38103;42.776;23.112;2023-08-06T06:51:31;92855.75;;;22.99;100.00
52105;BME280;38103;42.776;23.112;2023-08-06T06:53:59;92861.38;;;23.06;100.00
52105;BME280;38103;42.776;23.112;2023-08-06T06:56:25;92836.88;;;23.12;100.00
52105;BME280;38103;42.776;23.112;2023-08-06T06:58:50;92878.28;;;23.48;100.00
52105;BME280;38103;42.776;23.112;2023-08-06T07:01:15;92872.97;;;23.64;100.00
52105;BME280;38103;42.776;23.112;2023-08-06T07:03:41;92875.91;;;23.88;100.00
52105;BME280;38103;42.776;23.112;2023-08-06T07:06:06;92871.53;;;23.99;100.00
52105;BME280;38103;42.776;23.112;2023-08-06T07:08:32;92874.16;;;23.96;100.00
52105;BME280;38103;42.776;23.112;2023-08-06T07:11:05;92879.59;;;24.12;100.00
52105;BME280;38103;42.776;23.112;2023-08-06T07:13:32;92888.63;;;24.04;100.00
52105;BME280;38103;42.776;23.112;2023-08-06T07:15:58;92887.69;;;24.12;100.00
52105;BME280;38103;42.776;23.112;2023-08-06T07:18:24;92894.19;;;24.11;100.00
52105;BME280;38103;42.776;23.112;2023-08-06T07:20:50;92897.06;;;24.18;100.00
52105;BME280;38103;42.776;23.112;2023-08-06T07:23:16;92898.16;;;24.30;100.00
52105;BME280;38103;42.776;23.112;2023-08-06T07:25:42;92905.75;;;24.40;86.96
52105;BME280;38103;42.776;23.112;2023-08-06T07:28:08;92865.63;;;24.10;85.13
52105;BME280;38103;42.776;23.112;2023-08-06T07:30:33;92911.84;;;24.37;90.88
52105;BME280;38103;42.776;23.112;2023-08-06T07:32:58;92915.31;;;24.54;85.78
52105;BME280;38103;42.776;23.112;2023-08-06T07:35:24;92918.16;;;24.77;83.84
52105;BME280;38103;42.776;23.112;2023-08-06T07:37:49;92912.59;;;24.86;78.65
52105;BME280;38103;42.776;23.112;2023-08-06T07:40:15;92918.06;;;25.06;79.91
52105;BME280;38103;42.776;23.112;2023-08-06T07:42:40;92904.56;;;25.26;78.20
52105;BME280;38103;42.776;23.112;2023-08-06T07:45:07;92900.66;;;25.43;77.18
52105;BME280;38103;42.776;23.112;2023-08-06T07:47:33;92902.22;;;25.64;75.87
52105;BME280;38103;42.776;23.112;2023-08-06T07:49:58;92917.41;;;25.89;70.61
52105;BME280;38103;42.776;23.112;2023-08-06T07:52:24;92922.09;;;25.92;71.54
52105;BME280;38103;42.776;23.112;2023-08-06T07:54:50;92915.81;;;25.88;72.93
52105;BME280;38103;42.776;23.112;2023-08-06T07:57:15;92923.03;;;25.60;69.25
52105;BME280;38103;42.776;23.112;2023-08-06T07:59:41;92922.66;;;25.42;71.29
52105;BME280;38103;42.776;23.112;2023-08-06T08:02:06;92917.66;;;25.24;71.74
52105;BME280;38103;42.776;23.112;2023-08-06T08:04:31;92914.31;;;25.31;71.94
52105;BME280;38103;42.776;23.112;2023-08-06T08:06:57;92921.66;;;25.30;72.67
52105;BME280;38103;42.776;23.112;2023-08-06T08:09:22;92914.81;;;25.37;70.58
52105;BME280;38103;42.776;23.112;2023-08-06T08:11:48;92911.25;;;25.52;73.12
52105;BME280;38103;42.776;23.112;2023-08-06T08:14:13;92903.22;;;25.36;70.61
52105;BME280;38103;42.776;23.112;2023-08-06T08:16:38;92904.28;;;25.31;67.32
52105;BME280;38103;42.776;23.112;2023-08-06T08:19:04;92902.00;;;25.33;73.98
52105;BME280;38103;42.776;23.112;2023-08-06T08:21:29;92897.03;;;25.36;74.54
52105;BME280;38103;42.776;23.112;2023-08-06T08:23:55;92892.19;;;25.45;73.41
52105;BME280;38103;42.776;23.112;2023-08-06T08:26:20;92902.06;;;25.57;71.11
52105;BME280;38103;42.776;23.112;2023-08-06T08:28:46;92849.75;;;25.29;68.65
52105;BME280;38103;42.776;23.112;2023-08-06T08:31:11;92903.28;;;25.60;68.41
52105;BME280;38103;42.776;23.112;2023-08-06T08:33:40;92897.59;;;25.65;68.24
52105;BME280;38103;42.776;23.112;2023-08-06T08:36:06;92900.44;;;25.52;64.11
52105;BME280;38103;42.776;23.112;2023-08-06T08:38:31;92894.06;;;25.41;67.32
52105;BME280;38103;42.776;23.112;2023-08-06T08:40:57;92900.44;;;25.52;66.60
52105;BME280;38103;42.776;23.112;2023-08-06T08:43:23;92905.28;;;25.63;64.98
52105;BME280;38103;42.776;23.112;2023-08-06T08:45:52;92843.97;;;25.31;63.21
52105;BME280;38103;42.776;23.112;2023-08-06T08:48:20;92898.88;;;25.91;63.06
52105;BME280;38103;42.776;23.112;2023-08-06T08:50:49;92900.25;;;25.81;66.29
52105;BME280;38103;42.776;23.112;2023-08-06T08:53:16;92892.63;;;25.87;65.83
52105;BME280;38103;42.776;23.112;2023-08-06T08:55:43;92900.88;;;25.94;67.45
52105;BME280;38103;42.776;23.112;2023-08-06T08:58:10;92895.16;;;25.99;66.45
52105;BME280;38103;42.776;23.112;2023-08-06T09:00:36;92884.97;;;25.93;62.73
52105;BME280;38103;42.776;23.112;2023-08-06T09:03:02;92890.56;;;26.04;64.90
52105;BME280;38103;42.776;23.112;2023-08-06T09:05:31;92891.66;;;25.99;65.94
52105;BME280;38103;42.776;23.112;2023-08-06T09:08:02;92887.75;;;26.20;63.19
52105;BME280;38103;42.776;23.112;2023-08-06T09:10:28;92885.03;;;25.96;64.68
52105;BME280;38103;42.776;23.112;2023-08-06T09:12:55;92891.88;;;25.90;63.52
52105;BME280;38103;42.776;23.112;2023-08-06T09:15:24;92878.53;;;26.01;62.91
52105;BME280;38103;42.776;23.112;2023-08-06T09:17:50;92884.19;;;25.92;67.24
52105;BME280;38103;42.776;23.112;2023-08-06T09:20:16;92883.63;;;26.03;65.87
52105;BME280;38103;42.776;23.112;2023-08-06T09:22:41;92882.03;;;26.02;63.97
52105;BME280;38103;42.776;23.112;2023-08-06T09:25:07;92878.19;;;26.03;64.30
52105;BME280;38103;42.776;23.112;2023-08-06T09:27:39;92867.59;;;26.17;64.95
52105;BME280;38103;42.776;23.112;2023-08-06T09:30:06;92870.06;;;26.26;64.53
52105;BME280;38103;42.776;23.112;2023-08-06T09:32:48;92879.88;;;26.11;58.53
52105;BME280;38103;42.776;23.112;2023-08-06T09:35:17;92865.13;;;26.08;62.07
52105;BME280;38103;42.776;23.112;2023-08-06T09:37:42;92820.09;;;25.56;59.32
52105;BME280;38103;42.776;23.112;2023-08-06T09:40:31;92870.84;;;25.80;61.97
52105;BME280;38103;42.776;23.112;2023-08-06T09:42:57;92833.63;;;25.56;61.20
52105;BME280;38103;42.776;23.112;2023-08-06T09:45:24;92862.06;;;25.66;63.89
52105;BME280;38103;42.776;23.112;2023-08-06T09:47:56;92861.28;;;25.66;64.40
52105;BME280;38103;42.776;23.112;2023-08-06T09:50:21;92860.41;;;25.62;66.79
52105;BME280;38103;42.776;23.112;2023-08-06T09:52:48;92866.56;;;25.59;63.96
52105;BME280;38103;42.776;23.112;2023-08-06T09:55:14;92862.34;;;25.41;63.69
52105;BME280;38103;42.776;23.112;2023-08-06T09:57:42;92863.13;;;25.42;65.23
52105;BME280;38103;42.776;23.112;2023-08-06T10:00:09;92860.72;;;25.37;64.38
52105;BME280;38103;42.776;23.112;2023-08-06T10:02:37;92817.59;;;25.04;66.06
52105;BME280;38103;42.776;23.112;2023-08-06T10:05:03;92839.47;;;24.99;64.46
52105;BME280;38103;42.776;23.112;2023-08-06T10:07:30;92872.59;;;25.12;61.62
52105;BME280;38103;42.776;23.112;2023-08-06T10:09:56;92872.19;;;25.10;63.93
52105;BME280;38103;42.776;23.112;2023-08-06T10:12:22;92866.19;;;25.00;62.20
52105;BME280;38103;42.776;23.112;2023-08-06T10:14:51;92869.81;;;24.92;60.65
52105;BME280;38103;42.776;23.112;2023-08-06T10:17:19;92850.81;;;24.69;64.02
52105;BME280;38103;42.776;23.112;2023-08-06T10:19:45;92868.03;;;24.80;64.12
52105;BME280;38103;42.776;23.112;2023-08-06T10:22:12;92868.66;;;24.73;63.42
52105;BME280;38103;42.776;23.112;2023-08-06T10:24:55;92862.09;;;24.74;65.25
52105;BME280;38103;42.776;23.112;2023-08-06T10:27:32;92874.78;;;24.70;62.30
52105;BME280;38103;42.776;23.112;2023-08-06T10:30:24;92882.50;;;24.72;64.16
52105;BME280;38103;42.776;23.112;2023-08-06T10:32:55;92876.78;;;24.57;64.29
52105;BME280;38103;42.776;23.112;2023-08-06T10:38:18;92884.44;;;24.22;62.04
52105;BME280;38103;42.776;23.112;2023-08-06T10:41:00;92890.19;;;24.05;64.79
52105;BME280;38103;42.776;23.112;2023-08-06T10:45:55;92891.41;;;23.91;63.50
52105;BME280;38103;42.776;23.112;2023-08-06T10:48:40;92836.50;;;23.54;66.88
52105;BME280;38103;42.776;23.112;2023-08-06T10:51:08;92895.31;;;23.94;68.32
52105;BME280;38103;42.776;23.112;2023-08-06T10:53:34;92899.03;;;23.89;67.11
52105;BME280;38103;42.776;23.112;2023-08-06T10:56:12;92902.56;;;24.06;66.96
52105;BME280;38103;42.776;23.112;2023-08-06T10:58:37;92895.38;;;24.26;68.26
52105;BME280;38103;42.776;23.112;2023-08-06T11:01:02;92895.00;;;24.44;69.52
52105;BME280;38103;42.776;23.112;2023-08-06T11:03:28;92892.63;;;24.75;67.67
52105;BME280;38103;42.776;23.112;2023-08-06T11:05:54;92877.47;;;24.70;62.34
52105;BME280;38103;42.776;23.112;2023-08-06T11:08:26;92897.66;;;24.93;66.22
52105;BME280;38103;42.776;23.112;2023-08-06T11:10:51;92903.56;;;25.15;64.35
52105;BME280;38103;42.776;23.112;2023-08-06T11:13:17;92903.16;;;25.32;63.39
52105;BME280;38103;42.776;23.112;2023-08-06T11:15:44;92898.03;;;25.47;59.63
52105;BME280;38103;42.776;23.112;2023-08-06T11:18:09;92896.38;;;25.42;58.70
52105;BME280;38103;42.776;23.112;2023-08-06T11:20:36;92889.53;;;25.29;57.79
52105;BME280;38103;42.776;23.112;2023-08-06T11:23:02;92900.13;;;25.18;57.96
52105;BME280;38103;42.776;23.112;2023-08-06T11:25:27;92896.44;;;25.06;57.75
52105;BME280;38103;42.776;23.112;2023-08-06T11:27:53;92894.44;;;25.23;61.94
52105;BME280;38103;42.776;23.112;2023-08-06T11:30:18;92889.31;;;25.18;57.70
52105;BME280;38103;42.776;23.112;2023-08-06T11:32:47;92893.59;;;25.19;56.80
52105;BME280;38103;42.776;23.112;2023-08-06T11:35:14;92885.19;;;25.24;57.36
52105;BME280;38103;42.776;23.112;2023-08-06T11:37:43;92883.56;;;25.19;58.45
52105;BME280;38103;42.776;23.112;2023-08-06T11:40:10;92892.66;;;25.11;57.96
52105;BME280;38103;42.776;23.112;2023-08-06T11:42:36;92851.03;;;24.80;58.14
52105;BME280;38103;42.776;23.112;2023-08-06T11:45:03;92893.13;;;24.97;58.73
52105;BME280;38103;42.776;23.112;2023-08-06T11:47:30;92893.72;;;24.90;57.96
52105;BME280;38103;42.776;23.112;2023-08-06T11:49:55;92877.66;;;24.97;60.24
52105;BME280;38103;42.776;23.112;2023-08-06T11:52:24;92875.50;;;25.23;62.06
52105;BME280;38103;42.776;23.112;2023-08-06T11:55:04;92869.81;;;25.28;56.68
52105;BME280;38103;42.776;23.112;2023-08-06T11:57:36;92826.56;;;24.92;63.23
52105;BME280;38103;42.776;23.112;2023-08-06T12:00:09;92876.22;;;25.60;59.56
52105;BME280;38103;42.776;23.112;2023-08-06T12:02:35;92875.03;;;25.77;57.60
52105;BME280;38103;42.776;23.112;2023-08-06T12:05:10;92885.09;;;25.76;58.59
52105;BME280;38103;42.776;23.112;2023-08-06T12:07:37;92887.34;;;25.54;56.02
52105;BME280;38103;42.776;23.112;2023-08-06T12:10:03;92883.50;;;25.36;57.13
52105;BME280;38103;42.776;23.112;2023-08-06T12:12:29;92882.91;;;25.26;58.17
52105;BME280;38103;42.776;23.112;2023-08-06T12:14:55;92882.00;;;25.18;57.80
52105;BME280;38103;42.776;23.112;2023-08-06T12:17:21;92815.41;;;24.74;57.45
52105;BME280;38103;42.776;23.112;2023-08-06T12:19:47;92878.94;;;25.20;59.97
52105;BME280;38103;42.776;23.112;2023-08-06T12:22:13;92872.09;;;25.26;57.87
52105;BME280;38103;42.776;23.112;2023-08-06T12:24:40;92872.25;;;25.33;59.96
52105;BME280;38103;42.776;23.112;2023-08-06T12:27:06;92877.97;;;25.48;59.89
52105;BME280;38103;42.776;23.112;2023-08-06T12:29:31;92880.50;;;25.61;59.68
52105;BME280;38103;42.776;23.112;2023-08-06T12:31:56;92885.13;;;25.60;55.72
52105;BME280;38103;42.776;23.112;2023-08-06T12:34:22;92819.59;;;25.07;59.78
52105;BME280;38103;42.776;23.112;2023-08-06T12:36:47;92877.88;;;25.44;59.96
52105;BME280;38103;42.776;23.112;2023-08-06T12:39:13;92877.72;;;25.37;57.99
52105;BME280;38103;42.776;23.112;2023-08-06T12:41:38;92874.75;;;25.42;58.62
52105;BME280;38103;42.776;23.112;2023-08-06T12:44:03;92869.41;;;25.46;55.60
52105;BME280;38103;42.776;23.112;2023-08-06T12:46:30;92821.88;;;25.25;58.87
52105;BME280;38103;42.776;23.112;2023-08-06T12:48:56;92877.22;;;25.51;57.97
52105;BME280;38103;42.776;23.112;2023-08-06T12:51:23;92869.41;;;25.46;58.28
52105;BME280;38103;42.776;23.112;2023-08-06T12:53:48;92874.66;;;25.39;59.01